sensor_id;sensor_type;location;lat;lon;timestamp;P1;durP1;ratioP1;P2;durP2;ratioP2
75810;SDS011;64449;50.016;19.954;2023-03-01T00:04:27;26.70;;;11.40;;
75810;SDS011;64449;50.016;19.954;2023-03-01T00:06:52;29.50;;;13.10;;
75810;SDS011;64449;50.016;19.954;2023-03-01T01:00:11;29.10;;;15.60;;
75810;SDS011;64449;50.016;19.954;2023-03-01T01:02:37;32.00;;;18.50;;
75810;SDS011;64449;50.016;19.954;2023-03-01T01:05:02;32.70;;;15.80;;
75810;SDS011;64449;50.016;19.954;2023-03-01T01:07:29;30.20;;;14.10;;
75810;SDS011;64449;50.016;19.954;2023-03-01T01:09:54;28.50;;;15.70;;
75810;SDS011;64449;50.016;19.954;2023-03-01T01:14:45;24.80;;;14.10;;
75810;SDS011;64449;50.016;19.954;2023-03-01T01:19:36;21.10;;;11.00;;
75810;SDS011;64449;50.016;19.954;2023-03-01T01:22:02;29.00;;;14.90;;
75810;SDS011;64449;50.016;19.954;2023-03-01T01:24:28;34.60;;;17.90;;
75810;SDS011;64449;50.016;19.954;2023-03-01T01:29:19;35.60;;;17.70;;
75810;SDS011;64449;50.016;19.954;2023-03-01T01:31:44;38.10;;;18.60;;
75810;SDS011;64449;50.016;19.954;2023-03-01T01:34:14;45.90;;;19.50;;
75810;SDS011;64449;50.016;19.954;2023-03-01T01:39:07;35.50;;;15.90;;
75810;SDS011;64449;50.016;19.954;2023-03-01T01:41:38;42.10;;;17.50;;
75810;SDS011;64449;50.016;19.954;2023-03-01T01:44:25;35.30;;;17.60;;
75810;SDS011;64449;50.016;19.954;2023-03-01T01:47:25;34.50;;;16.50;;
75810;SDS011;64449;50.016;19.954;2023-03-01T01:49:49;35.30;;;18.60;;
75810;SDS011;64449;50.016;19.954;2023-03-01T01:55:00;35.20;;;17.60;;
75810;SDS011;64449;50.016;19.954;2023-03-01T01:57:35;41.30;;;18.90;;
75810;SDS011;64449;50.016;19.954;2023-03-01T02:00:10;44.80;;;20.90;;
75810;SDS011;64449;50.016;19.954;2023-03-01T02:02:39;35.10;;;17.00;;
75810;SDS011;64449;50.016;19.954;2023-03-01T02:05:12;45.10;;;20.80;;
75810;SDS011;64449;50.016;19.954;2023-03-01T02:07:59;37.10;;;18.50;;
75810;SDS011;64449;50.016;19.954;2023-03-01T02:10:25;37.40;;;17.40;;
75810;SDS011;64449;50.016;19.954;2023-03-01T02:12:52;44.80;;;22.70;;
75810;SDS011;64449;50.016;19.954;2023-03-01T02:15:21;54.40;;;23.10;;
75810;SDS011;64449;50.016;19.954;2023-03-01T02:17:47;52.30;;;22.90;;
75810;SDS011;64449;50.016;19.954;2023-03-01T02:20:26;46.40;;;21.40;;
75810;SDS011;64449;50.016;19.954;2023-03-01T02:22:55;43.70;;;19.20;;
75810;SDS011;64449;50.016;19.954;2023-03-01T02:27:49;39.10;;;19.10;;
75810;SDS011;64449;50.016;19.954;2023-03-01T02:30:18;43.40;;;19.90;;
75810;SDS011;64449;50.016;19.954;2023-03-01T02:32:45;44.80;;;20.60;;
75810;SDS011;64449;50.016;19.954;2023-03-01T02:35:12;45.40;;;19.30;;
75810;SDS011;64449;50.016;19.954;2023-03-01T02:37:39;50.00;;;20.80;;
75810;SDS011;64449;50.016;19.954;2023-03-01T02:40:08;41.90;;;20.30;;
75810;SDS011;64449;50.016;19.954;2023-03-01T02:42:40;37.20;;;18.10;;
75810;SDS011;64449;50.016;19.954;2023-03-01T02:45:12;39.60;;;19.70;;
75810;SDS011;64449;50.016;19.954;2023-03-01T02:47:37;46.00;;;20.00;;
75810;SDS011;64449;50.016;19.954;2023-03-01T02:50:09;48.50;;;21.00;;
75810;SDS011;64449;50.016;19.954;2023-03-01T02:55:29;39.40;;;18.80;;
75810;SDS011;64449;50.016;19.954;2023-03-01T02:57:55;44.00;;;19.00;;
75810;SDS011;64449;50.016;19.954;2023-03-01T03:00:23;43.80;;;19.30;;
75810;SDS011;64449;50.016;19.954;2023-03-01T03:02:52;40.80;;;18.50;;
75810;SDS011;64449;50.016;19.954;2023-03-01T03:05:29;41.30;;;19.50;;
75810;SDS011;64449;50.016;19.954;2023-03-01T03:07:56;42.00;;;19.30;;
75810;SDS011;64449;50.016;19.954;2023-03-01T03:10:33;42.70;;;18.20;;
75810;SDS011;64449;50.016;19.954;2023-03-01T03:13:04;39.10;;;19.20;;
75810;SDS011;64449;50.016;19.954;2023-03-01T03:15:35;41.20;;;20.20;;
75810;SDS011;64449;50.016;19.954;2023-03-01T03:18:01;44.00;;;21.40;;
75810;SDS011;64449;50.016;19.954;2023-03-01T03:20:27;44.80;;;19.10;;
75810;SDS011;64449;50.016;19.954;2023-03-01T03:22:54;41.00;;;18.30;;
75810;SDS011;64449;50.016;19.954;2023-03-01T03:25:21;41.40;;;18.70;;
75810;SDS011;64449;50.016;19.954;2023-03-01T03:27:48;42.80;;;19.30;;
75810;SDS011;64449;50.016;19.954;2023-03-01T03:30:22;47.30;;;18.90;;
75810;SDS011;64449;50.016;19.954;2023-03-01T03:32:49;41.20;;;18.80;;
75810;SDS011;64449;50.016;19.954;2023-03-01T03:35:34;39.90;;;17.60;;
75810;SDS011;64449;50.016;19.954;2023-03-01T03:38:05;41.90;;;18.40;;
75810;SDS011;64449;50.016;19.954;2023-03-01T03:40:38;46.30;;;19.40;;
75810;SDS011;64449;50.016;19.954;2023-03-01T03:43:09;42.40;;;19.50;;
75810;SDS011;64449;50.016;19.954;2023-03-01T03:45:37;42.40;;;20.20;;
75810;SDS011;64449;50.016;19.954;2023-03-01T03:50:30;31.10;;;14.40;;
75810;SDS011;64449;50.016;19.954;2023-03-01T03:52:56;39.10;;;17.40;;
75810;SDS011;64449;50.016;19.954;2023-03-01T03:55:21;38.30;;;17.30;;
75810;SDS011;64449;50.016;19.954;2023-03-01T03:57:47;39.00;;;18.50;;
75810;SDS011;64449;50.016;19.954;2023-03-01T04:00:20;37.00;;;18.40;;
75810;SDS011;64449;50.016;19.954;2023-03-01T04:02:49;37.90;;;18.10;;
75810;SDS011;64449;50.016;19.954;2023-03-01T04:05:16;44.00;;;19.60;;
75810;SDS011;64449;50.016;19.954;2023-03-01T04:07:43;47.20;;;21.00;;
75810;SDS011;64449;50.016;19.954;2023-03-01T04:10:13;44.10;;;21.10;;
75810;SDS011;64449;50.016;19.954;2023-03-01T04:12:40;45.70;;;19.90;;
75810;SDS011;64449;50.016;19.954;2023-03-01T04:15:08;46.50;;;21.10;;
75810;SDS011;64449;50.016;19.954;2023-03-01T04:17:45;46.60;;;20.90;;
75810;SDS011;64449;50.016;19.954;2023-03-01T04:20:13;41.00;;;20.70;;
75810;SDS011;64449;50.016;19.954;2023-03-01T04:22:42;48.60;;;21.20;;
75810;SDS011;64449;50.016;19.954;2023-03-01T04:25:11;46.40;;;19.20;;
75810;SDS011;64449;50.016;19.954;2023-03-01T04:27:39;41.90;;;19.70;;
75810;SDS011;64449;50.016;19.954;2023-03-01T04:30:05;43.80;;;19.70;;
75810;SDS011;64449;50.016;19.954;2023-03-01T04:32:32;51.90;;;21.40;;
75810;SDS011;64449;50.016;19.954;2023-03-01T04:34:57;49.70;;;21.70;;
75810;SDS011;64449;50.016;19.954;2023-03-01T04:37:22;45.00;;;20.20;;
75810;SDS011;64449;50.016;19.954;2023-03-01T04:39:49;38.40;;;17.90;;
75810;SDS011;64449;50.016;19.954;2023-03-01T04:42:15;41.40;;;20.00;;
75810;SDS011;64449;50.016;19.954;2023-03-01T04:44:41;48.20;;;21.00;;
75810;SDS011;64449;50.016;19.954;2023-03-01T04:47:07;53.00;;;21.40;;
75810;SDS011;64449;50.016;19.954;2023-03-01T04:49:33;42.40;;;20.60;;
75810;SDS011;64449;50.016;19.954;2023-03-01T04:51:58;48.70;;;19.70;;
75810;SDS011;64449;50.016;19.954;2023-03-01T04:54:27;42.40;;;20.30;;
75810;SDS011;64449;50.016;19.954;2023-03-01T04:56:55;46.60;;;20.90;;
75810;SDS011;64449;50.016;19.954;2023-03-01T05:01:52;39.60;;;17.00;;
75810;SDS011;64449;50.016;19.954;2023-03-01T05:04:23;41.50;;;19.50;;
75810;SDS011;64449;50.016;19.954;2023-03-01T05:06:49;42.70;;;19.50;;
75810;SDS011;64449;50.016;19.954;2023-03-01T05:11:41;39.50;;;14.90;;
75810;SDS011;64449;50.016;19.954;2023-03-01T05:14:07;38.60;;;17.70;;
75810;SDS011;64449;50.016;19.954;2023-03-01T05:16:33;40.50;;;19.40;;
75810;SDS011;64449;50.016;19.954;2023-03-01T05:19:01;39.70;;;17.90;;
75810;SDS011;64449;50.016;19.954;2023-03-01T05:21:36;45.30;;;18.90;;
75810;SDS011;64449;50.016;19.954;2023-03-01T05:24:22;39.00;;;16.10;;
75810;SDS011;64449;50.016;19.954;2023-03-01T05:26:48;26.30;;;12.80;;
75810;SDS011;64449;50.016;19.954;2023-03-01T05:29:13;32.80;;;15.10;;
75810;SDS011;64449;50.016;19.954;2023-03-01T05:31:38;43.20;;;19.10;;
75810;SDS011;64449;50.016;19.954;2023-03-01T05:34:04;37.40;;;17.70;;
75810;SDS011;64449;50.016;19.954;2023-03-01T05:36:29;36.60;;;19.60;;
75810;SDS011;64449;50.016;19.954;2023-03-01T05:38:55;36.00;;;18.10;;
75810;SDS011;64449;50.016;19.954;2023-03-01T05:43:46;32.40;;;14.80;;
75810;SDS011;64449;50.016;19.954;2023-03-01T05:46:11;37.70;;;17.80;;
75810;SDS011;64449;50.016;19.954;2023-03-01T05:48:38;42.60;;;19.40;;
75810;SDS011;64449;50.016;19.954;2023-03-01T05:53:29;30.60;;;13.10;;
75810;SDS011;64449;50.016;19.954;2023-03-01T05:55:54;35.40;;;17.20;;
75810;SDS011;64449;50.016;19.954;2023-03-01T05:58:20;38.20;;;16.20;;
75810;SDS011;64449;50.016;19.954;2023-03-01T06:00:47;38.30;;;18.00;;
75810;SDS011;64449;50.016;19.954;2023-03-01T06:03:14;40.40;;;17.60;;
75810;SDS011;64449;50.016;19.954;2023-03-01T06:05:41;35.50;;;16.90;;
75810;SDS011;64449;50.016;19.954;2023-03-01T06:08:07;39.50;;;18.40;;
75810;SDS011;64449;50.016;19.954;2023-03-01T06:10:32;40.10;;;20.50;;
75810;SDS011;64449;50.016;19.954;2023-03-01T06:12:58;41.20;;;21.10;;
75810;SDS011;64449;50.016;19.954;2023-03-01T06:15:23;46.10;;;20.40;;
75810;SDS011;64449;50.016;19.954;2023-03-01T06:17:49;49.60;;;23.40;;
75810;SDS011;64449;50.016;19.954;2023-03-01T06:20:16;37.80;;;19.60;;
75810;SDS011;64449;50.016;19.954;2023-03-01T06:22:45;46.80;;;21.10;;
75810;SDS011;64449;50.016;19.954;2023-03-01T06:25:13;45.60;;;21.30;;
75810;SDS011;64449;50.016;19.954;2023-03-01T06:27:41;44.60;;;19.80;;
75810;SDS011;64449;50.016;19.954;2023-03-01T06:30:08;48.00;;;21.10;;
75810;SDS011;64449;50.016;19.954;2023-03-01T06:32:36;45.50;;;21.80;;
75810;SDS011;64449;50.016;19.954;2023-03-01T06:35:02;38.50;;;19.30;;
75810;SDS011;64449;50.016;19.954;2023-03-01T06:37:29;34.80;;;17.20;;
75810;SDS011;64449;50.016;19.954;2023-03-01T06:39:54;35.80;;;18.30;;
75810;SDS011;64449;50.016;19.954;2023-03-01T06:42:19;43.60;;;21.70;;
75810;SDS011;64449;50.016;19.954;2023-03-01T06:44:45;45.10;;;21.50;;
75810;SDS011;64449;50.016;19.954;2023-03-01T06:49:36;43.10;;;18.30;;
75810;SDS011;64449;50.016;19.954;2023-03-01T06:52:02;39.00;;;17.50;;
75810;SDS011;64449;50.016;19.954;2023-03-01T06:54:27;40.60;;;17.90;;
75810;SDS011;64449;50.016;19.954;2023-03-01T06:56:53;36.20;;;17.80;;
75810;SDS011;64449;50.016;19.954;2023-03-01T06:59:18;46.60;;;20.00;;
75810;SDS011;64449;50.016;19.954;2023-03-01T07:01:44;46.20;;;20.10;;
75810;SDS011;64449;50.016;19.954;2023-03-01T07:04:10;41.40;;;20.30;;
75810;SDS011;64449;50.016;19.954;2023-03-01T07:06:36;40.80;;;19.80;;
75810;SDS011;64449;50.016;19.954;2023-03-01T07:09:02;41.90;;;20.80;;
75810;SDS011;64449;50.016;19.954;2023-03-01T07:11:27;43.80;;;20.70;;
75810;SDS011;64449;50.016;19.954;2023-03-01T07:16:18;31.10;;;16.30;;
75810;SDS011;64449;50.016;19.954;2023-03-01T07:18:45;40.80;;;21.30;;
75810;SDS011;64449;50.016;19.954;2023-03-01T07:21:12;41.00;;;20.40;;
75810;SDS011;64449;50.016;19.954;2023-03-01T07:23:38;37.10;;;19.30;;
75810;SDS011;64449;50.016;19.954;2023-03-01T07:26:04;37.90;;;18.80;;
75810;SDS011;64449;50.016;19.954;2023-03-01T07:28:30;36.70;;;18.30;;
75810;SDS011;64449;50.016;19.954;2023-03-01T07:33:25;30.40;;;14.90;;
75810;SDS011;64449;50.016;19.954;2023-03-01T07:38:20;31.90;;;13.80;;
75810;SDS011;64449;50.016;19.954;2023-03-01T07:43:11;31.50;;;16.10;;
75810;SDS011;64449;50.016;19.954;2023-03-01T07:48:01;29.90;;;17.00;;
75810;SDS011;64449;50.016;19.954;2023-03-01T07:50:27;35.50;;;18.60;;
75810;SDS011;64449;50.016;19.954;2023-03-01T07:52:52;36.10;;;19.70;;
75810;SDS011;64449;50.016;19.954;2023-03-01T07:55:18;37.40;;;22.10;;
75810;SDS011;64449;50.016;19.954;2023-03-01T07:57:45;35.40;;;19.40;;
75810;SDS011;64449;50.016;19.954;2023-03-01T08:00:10;37.50;;;21.70;;
75810;SDS011;64449;50.016;19.954;2023-03-01T08:02:37;40.20;;;21.00;;
75810;SDS011;64449;50.016;19.954;2023-03-01T08:05:02;36.80;;;20.80;;
75810;SDS011;64449;50.016;19.954;2023-03-01T08:07:28;43.30;;;22.70;;
75810;SDS011;64449;50.016;19.954;2023-03-01T08:10:00;41.20;;;23.70;;
75810;SDS011;64449;50.016;19.954;2023-03-01T08:12:25;39.70;;;23.40;;
75810;SDS011;64449;50.016;19.954;2023-03-01T08:14:53;44.40;;;23.90;;
75810;SDS011;64449;50.016;19.954;2023-03-01T08:17:19;38.40;;;20.40;;
75810;SDS011;64449;50.016;19.954;2023-03-01T08:19:44;36.60;;;20.70;;
75810;SDS011;64449;50.016;19.954;2023-03-01T08:22:10;35.20;;;20.40;;
75810;SDS011;64449;50.016;19.954;2023-03-01T08:24:35;35.80;;;20.80;;
75810;SDS011;64449;50.016;19.954;2023-03-01T08:27:01;38.90;;;21.30;;
75810;SDS011;64449;50.016;19.954;2023-03-01T08:29:27;34.70;;;20.00;;
75810;SDS011;64449;50.016;19.954;2023-03-01T08:31:55;32.20;;;18.30;;
75810;SDS011;64449;50.016;19.954;2023-03-01T08:34:23;36.40;;;21.10;;
75810;SDS011;64449;50.016;19.954;2023-03-01T08:36:56;33.40;;;19.30;;
75810;SDS011;64449;50.016;19.954;2023-03-01T08:39:22;34.30;;;20.20;;
75810;SDS011;64449;50.016;19.954;2023-03-01T08:41:47;35.60;;;20.60;;
75810;SDS011;64449;50.016;19.954;2023-03-01T08:44:14;32.30;;;18.90;;
75810;SDS011;64449;50.016;19.954;2023-03-01T08:46:41;30.80;;;19.00;;
75810;SDS011;64449;50.016;19.954;2023-03-01T08:49:08;30.30;;;18.60;;
75810;SDS011;64449;50.016;19.954;2023-03-01T08:51:36;31.50;;;19.10;;
75810;SDS011;64449;50.016;19.954;2023-03-01T08:54:12;26.90;;;16.50;;
75810;SDS011;64449;50.016;19.954;2023-03-01T08:56:40;30.20;;;17.30;;
75810;SDS011;64449;50.016;19.954;2023-03-01T08:59:05;26.40;;;16.40;;
75810;SDS011;64449;50.016;19.954;2023-03-01T09:01:31;24.50;;;16.20;;
75810;SDS011;64449;50.016;19.954;2023-03-01T09:03:56;28.40;;;16.60;;
75810;SDS011;64449;50.016;19.954;2023-03-01T09:06:22;27.10;;;16.60;;
75810;SDS011;64449;50.016;19.954;2023-03-01T09:08:48;26.70;;;17.70;;
75810;SDS011;64449;50.016;19.954;2023-03-01T09:11:15;22.40;;;12.80;;
75810;SDS011;64449;50.016;19.954;2023-03-01T09:13:43;25.40;;;14.40;;
75810;SDS011;64449;50.016;19.954;2023-03-01T09:16:10;22.50;;;13.40;;
75810;SDS011;64449;50.016;19.954;2023-03-01T09:18:37;24.70;;;16.40;;
75810;SDS011;64449;50.016;19.954;2023-03-01T09:23:36;25.20;;;15.90;;
75810;SDS011;64449;50.016;19.954;2023-03-01T09:26:07;32.40;;;19.90;;
75810;SDS011;64449;50.016;19.954;2023-03-01T09:28:34;24.20;;;15.20;;
75810;SDS011;64449;50.016;19.954;2023-03-01T09:31:00;33.40;;;18.50;;
75810;SDS011;64449;50.016;19.954;2023-03-01T09:33:27;22.70;;;15.20;;
75810;SDS011;64449;50.016;19.954;2023-03-01T09:35:57;20.70;;;13.70;;
75810;SDS011;64449;50.016;19.954;2023-03-01T09:38:24;14.20;;;9.90;;
75810;SDS011;64449;50.016;19.954;2023-03-01T09:40:49;19.40;;;12.90;;
75810;SDS011;64449;50.016;19.954;2023-03-01T09:46:07;20.00;;;12.00;;
75810;SDS011;64449;50.016;19.954;2023-03-01T09:49:10;18.20;;;12.60;;
75810;SDS011;64449;50.016;19.954;2023-03-01T09:51:31;19.70;;;11.60;;
75810;SDS011;64449;50.016;19.954;2023-03-01T09:54:00;17.70;;;11.10;;
75810;SDS011;64449;50.016;19.954;2023-03-01T09:56:37;18.50;;;12.20;;
75810;SDS011;64449;50.016;19.954;2023-03-01T10:01:58;16.40;;;11.10;;
75810;SDS011;64449;50.016;19.954;2023-03-01T10:04:46;15.90;;;11.20;;
75810;SDS011;64449;50.016;19.954;2023-03-01T10:09:54;14.40;;;10.20;;
75810;SDS011;64449;50.016;19.954;2023-03-01T10:12:20;15.90;;;11.10;;
75810;SDS011;64449;50.016;19.954;2023-03-01T10:14:59;17.30;;;12.50;;
75810;SDS011;64449;50.016;19.954;2023-03-01T10:19:55;18.40;;;12.70;;
75810;SDS011;64449;50.016;19.954;2023-03-01T10:22:35;20.90;;;13.30;;
75810;SDS011;64449;50.016;19.954;2023-03-01T10:25:02;20.20;;;11.90;;
75810;SDS011;64449;50.016;19.954;2023-03-01T10:30:21;20.40;;;12.50;;
75810;SDS011;64449;50.016;19.954;2023-03-01T10:32:54;21.60;;;14.30;;
75810;SDS011;64449;50.016;19.954;2023-03-01T10:35:23;18.90;;;11.60;;
75810;SDS011;64449;50.016;19.954;2023-03-01T10:40:31;18.00;;;12.90;;
75810;SDS011;64449;50.016;19.954;2023-03-01T10:42:58;14.70;;;11.60;;
75810;SDS011;64449;50.016;19.954;2023-03-01T10:50:50;16.30;;;9.60;;
75810;SDS011;64449;50.016;19.954;2023-03-01T10:53:34;14.10;;;10.00;;
75810;SDS011;64449;50.016;19.954;2023-03-01T10:56:09;14.80;;;10.70;;
75810;SDS011;64449;50.016;19.954;2023-03-01T10:58:38;12.80;;;9.20;;
75810;SDS011;64449;50.016;19.954;2023-03-01T11:03:40;17.90;;;11.50;;
75810;SDS011;64449;50.016;19.954;2023-03-01T11:08:39;16.60;;;11.50;;
75810;SDS011;64449;50.016;19.954;2023-03-01T11:13:48;16.10;;;12.00;;
75810;SDS011;64449;50.016;19.954;2023-03-01T11:16:17;15.00;;;11.10;;
75810;SDS011;64449;50.016;19.954;2023-03-01T11:18:56;15.30;;;11.20;;
75810;SDS011;64449;50.016;19.954;2023-03-01T11:21:29;19.20;;;13.10;;
75810;SDS011;64449;50.016;19.954;2023-03-01T11:23:59;22.30;;;14.40;;
75810;SDS011;64449;50.016;19.954;2023-03-01T11:26:27;25.60;;;15.10;;
75810;SDS011;64449;50.016;19.954;2023-03-01T11:29:00;22.30;;;15.60;;
75810;SDS011;64449;50.016;19.954;2023-03-01T11:31:31;23.00;;;14.60;;
75810;SDS011;64449;50.016;19.954;2023-03-01T11:34:05;21.40;;;15.40;;
75810;SDS011;64449;50.016;19.954;2023-03-01T11:36:41;23.20;;;15.80;;
75810;SDS011;64449;50.016;19.954;2023-03-01T11:39:28;21.70;;;15.70;;
75810;SDS011;64449;50.016;19.954;2023-03-01T11:42:05;28.30;;;18.80;;
75810;SDS011;64449;50.016;19.954;2023-03-01T11:44:36;22.70;;;17.20;;
75810;SDS011;64449;50.016;19.954;2023-03-01T11:55:26;18.20;;;12.80;;
75810;SDS011;64449;50.016;19.954;2023-03-01T12:00:57;21.60;;;13.80;;
75810;SDS011;64449;50.016;19.954;2023-03-01T12:06:40;19.20;;;13.60;;
75810;SDS011;64449;50.016;19.954;2023-03-01T12:09:31;23.50;;;13.80;;
75810;SDS011;64449;50.016;19.954;2023-03-01T12:12:31;18.40;;;12.80;;
75810;SDS011;64449;50.016;19.954;2023-03-01T12:20:50;21.00;;;13.70;;
75810;SDS011;64449;50.016;19.954;2023-03-01T12:29:02;18.90;;;12.00;;
75810;SDS011;64449;50.016;19.954;2023-03-01T12:37:04;19.80;;;13.20;;
75810;SDS011;64449;50.016;19.954;2023-03-01T12:45:59;22.00;;;14.40;;
75810;SDS011;64449;50.016;19.954;2023-03-01T12:51:01;24.50;;;16.10;;
75810;SDS011;64449;50.016;19.954;2023-03-01T12:56:01;23.20;;;15.20;;
75810;SDS011;64449;50.016;19.954;2023-03-01T13:01:35;22.60;;;14.10;;
75810;SDS011;64449;50.016;19.954;2023-03-01T13:09:19;24.40;;;14.20;;
75810;SDS011;64449;50.016;19.954;2023-03-01T13:18:02;20.00;;;12.50;;
75810;SDS011;64449;50.016;19.954;2023-03-01T13:28:40;24.20;;;15.40;;
75810;SDS011;64449;50.016;19.954;2023-03-01T13:33:41;17.70;;;12.20;;
75810;SDS011;64449;50.016;19.954;2023-03-01T13:36:10;19.50;;;12.20;;
75810;SDS011;64449;50.016;19.954;2023-03-01T13:39:18;16.40;;;10.30;;
75810;SDS011;64449;50.016;19.954;2023-03-01T13:41:53;18.40;;;10.80;;
75810;SDS011;64449;50.016;19.954;2023-03-01T13:46:50;18.10;;;11.20;;
75810;SDS011;64449;50.016;19.954;2023-03-01T13:49:21;18.00;;;10.30;;
75810;SDS011;64449;50.016;19.954;2023-03-01T13:51:50;15.00;;;8.90;;
75810;SDS011;64449;50.016;19.954;2023-03-01T13:54:16;17.00;;;10.00;;
75810;SDS011;64449;50.016;19.954;2023-03-01T13:56:50;18.00;;;11.60;;
75810;SDS011;64449;50.016;19.954;2023-03-01T13:59:19;17.90;;;11.20;;
75810;SDS011;64449;50.016;19.954;2023-03-01T14:01:52;20.50;;;11.10;;
75810;SDS011;64449;50.016;19.954;2023-03-01T14:04:23;16.40;;;8.80;;
75810;SDS011;64449;50.016;19.954;2023-03-01T14:09:39;16.20;;;9.60;;
75810;SDS011;64449;50.016;19.954;2023-03-01T14:14:45;15.70;;;8.40;;
75810;SDS011;64449;50.016;19.954;2023-03-01T14:20:02;16.20;;;10.30;;
75810;SDS011;64449;50.016;19.954;2023-03-01T14:22:34;17.60;;;10.50;;
75810;SDS011;64449;50.016;19.954;2023-03-01T14:25:03;17.70;;;10.00;;
75810;SDS011;64449;50.016;19.954;2023-03-01T14:27:39;17.40;;;9.70;;
75810;SDS011;64449;50.016;19.954;2023-03-01T14:30:41;20.10;;;12.50;;
75810;SDS011;64449;50.016;19.954;2023-03-01T14:33:05;14.20;;;8.90;;
75810;SDS011;64449;50.016;19.954;2023-03-01T14:35:51;14.10;;;8.50;;
75810;SDS011;64449;50.016;19.954;2023-03-01T14:38:37;15.70;;;9.50;;
75810;SDS011;64449;50.016;19.954;2023-03-01T14:41:25;13.40;;;7.30;;
75810;SDS011;64449;50.016;19.954;2023-03-01T14:43:53;13.80;;;8.60;;
75810;SDS011;64449;50.016;19.954;2023-03-01T14:46:35;15.90;;;8.40;;
75810;SDS011;64449;50.016;19.954;2023-03-01T14:49:04;15.70;;;8.00;;
75810;SDS011;64449;50.016;19.954;2023-03-01T14:51:36;12.10;;;7.10;;
75810;SDS011;64449;50.016;19.954;2023-03-01T14:56:46;12.20;;;6.90;;
75810;SDS011;64449;50.016;19.954;2023-03-01T14:59:12;13.50;;;7.40;;
75810;SDS011;64449;50.016;19.954;2023-03-01T15:01:39;14.10;;;8.20;;
75810;SDS011;64449;50.016;19.954;2023-03-01T15:04:06;16.00;;;7.90;;
75810;SDS011;64449;50.016;19.954;2023-03-01T15:06:36;12.80;;;8.00;;
75810;SDS011;64449;50.016;19.954;2023-03-01T15:09:02;14.30;;;7.30;;
75810;SDS011;64449;50.016;19.954;2023-03-01T15:11:29;13.80;;;7.70;;
75810;SDS011;64449;50.016;19.954;2023-03-01T15:13:56;14.80;;;8.70;;
75810;SDS011;64449;50.016;19.954;2023-03-01T15:18:59;14.60;;;7.90;;
75810;SDS011;64449;50.016;19.954;2023-03-01T15:21:32;12.80;;;7.30;;
75810;SDS011;64449;50.016;19.954;2023-03-01T15:26:44;13.10;;;7.30;;
75810;SDS011;64449;50.016;19.954;2023-03-01T15:29:21;13.30;;;7.20;;
75810;SDS011;64449;50.016;19.954;2023-03-01T15:31:55;12.70;;;6.90;;
75810;SDS011;64449;50.016;19.954;2023-03-01T15:34:28;12.60;;;7.40;;
75810;SDS011;64449;50.016;19.954;2023-03-01T15:36:56;10.70;;;6.40;;
75810;SDS011;64449;50.016;19.954;2023-03-01T15:39:38;12.00;;;7.00;;
75810;SDS011;64449;50.016;19.954;2023-03-01T15:44:34;13.70;;;7.30;;
75810;SDS011;64449;50.016;19.954;2023-03-01T15:47:01;14.20;;;7.10;;
75810;SDS011;64449;50.016;19.954;2023-03-01T15:49:46;16.20;;;7.60;;
75810;SDS011;64449;50.016;19.954;2023-03-01T15:52:22;14.60;;;7.20;;
75810;SDS011;64449;50.016;19.954;2023-03-01T15:54:57;12.30;;;6.80;;
75810;SDS011;64449;50.016;19.954;2023-03-01T15:57:25;12.70;;;7.40;;
75810;SDS011;64449;50.016;19.954;2023-03-01T15:59:51;18.00;;;9.10;;
75810;SDS011;64449;50.016;19.954;2023-03-01T16:02:16;13.80;;;7.20;;
75810;SDS011;64449;50.016;19.954;2023-03-01T16:04:42;14.70;;;8.30;;
75810;SDS011;64449;50.016;19.954;2023-03-01T16:07:10;16.50;;;8.70;;
75810;SDS011;64449;50.016;19.954;2023-03-01T16:09:37;13.60;;;7.50;;
75810;SDS011;64449;50.016;19.954;2023-03-01T16:12:03;14.60;;;7.50;;
75810;SDS011;64449;50.016;19.954;2023-03-01T16:14:28;13.10;;;8.00;;
75810;SDS011;64449;50.016;19.954;2023-03-01T16:16:54;14.10;;;8.20;;
75810;SDS011;64449;50.016;19.954;2023-03-01T16:19:19;13.80;;;7.40;;
75810;SDS011;64449;50.016;19.954;2023-03-01T16:21:45;13.20;;;8.10;;
75810;SDS011;64449;50.016;19.954;2023-03-01T16:24:12;15.90;;;8.70;;
75810;SDS011;64449;50.016;19.954;2023-03-01T16:26:40;15.10;;;7.90;;
75810;SDS011;64449;50.016;19.954;2023-03-01T16:29:07;14.60;;;7.90;;
75810;SDS011;64449;50.016;19.954;2023-03-01T16:31:32;17.30;;;9.40;;
75810;SDS011;64449;50.016;19.954;2023-03-01T16:33:58;14.90;;;8.30;;
75810;SDS011;64449;50.016;19.954;2023-03-01T16:36:25;15.40;;;8.50;;
75810;SDS011;64449;50.016;19.954;2023-03-01T16:38:53;19.50;;;9.70;;
75810;SDS011;64449;50.016;19.954;2023-03-01T16:41:20;15.30;;;7.80;;
75810;SDS011;64449;50.016;19.954;2023-03-01T16:43:47;16.40;;;9.20;;
75810;SDS011;64449;50.016;19.954;2023-03-01T16:46:17;15.90;;;8.90;;
75810;SDS011;64449;50.016;19.954;2023-03-01T16:48:47;17.70;;;8.80;;
75810;SDS011;64449;50.016;19.954;2023-03-01T16:51:13;18.30;;;8.80;;
75810;SDS011;64449;50.016;19.954;2023-03-01T16:53:38;16.30;;;8.60;;
75810;SDS011;64449;50.016;19.954;2023-03-01T16:56:05;20.30;;;9.60;;
75810;SDS011;64449;50.016;19.954;2023-03-01T16:58:33;17.80;;;8.30;;
75810;SDS011;64449;50.016;19.954;2023-03-01T17:01:03;18.00;;;9.30;;
75810;SDS011;64449;50.016;19.954;2023-03-01T17:03:31;17.20;;;8.40;;
75810;SDS011;64449;50.016;19.954;2023-03-01T17:05:56;17.10;;;8.30;;
75810;SDS011;64449;50.016;19.954;2023-03-01T17:08:22;17.60;;;8.10;;
75810;SDS011;64449;50.016;19.954;2023-03-01T17:10:47;17.60;;;8.40;;
75810;SDS011;64449;50.016;19.954;2023-03-01T17:13:13;15.40;;;7.80;;
75810;SDS011;64449;50.016;19.954;2023-03-01T17:15:41;17.70;;;8.50;;
75810;SDS011;64449;50.016;19.954;2023-03-01T17:18:07;14.70;;;8.50;;
75810;SDS011;64449;50.016;19.954;2023-03-01T17:20:33;15.20;;;7.70;;
75810;SDS011;64449;50.016;19.954;2023-03-01T17:22:59;16.40;;;9.60;;
75810;SDS011;64449;50.016;19.954;2023-03-01T17:25:25;15.90;;;8.10;;
75810;SDS011;64449;50.016;19.954;2023-03-01T17:27:50;15.10;;;8.70;;
75810;SDS011;64449;50.016;19.954;2023-03-01T17:30:16;18.00;;;9.10;;
75810;SDS011;64449;50.016;19.954;2023-03-01T17:32:42;17.80;;;7.90;;
75810;SDS011;64449;50.016;19.954;2023-03-01T17:35:07;14.50;;;8.40;;
75810;SDS011;64449;50.016;19.954;2023-03-01T17:37:35;16.10;;;8.10;;
75810;SDS011;64449;50.016;19.954;2023-03-01T17:40:03;17.60;;;8.50;;
75810;SDS011;64449;50.016;19.954;2023-03-01T17:42:30;13.10;;;7.00;;
75810;SDS011;64449;50.016;19.954;2023-03-01T17:44:56;14.80;;;8.50;;
75810;SDS011;64449;50.016;19.954;2023-03-01T17:47:21;17.80;;;8.30;;
75810;SDS011;64449;50.016;19.954;2023-03-01T17:49:47;15.70;;;8.20;;
75810;SDS011;64449;50.016;19.954;2023-03-01T17:52:12;15.30;;;7.50;;
75810;SDS011;64449;50.016;19.954;2023-03-01T17:54:41;17.40;;;8.00;;
75810;SDS011;64449;50.016;19.954;2023-03-01T17:57:09;15.10;;;7.80;;
75810;SDS011;64449;50.016;19.954;2023-03-01T17:59:35;14.30;;;8.50;;
75810;SDS011;64449;50.016;19.954;2023-03-01T18:02:01;14.80;;;7.80;;